createdAt,value
2023-05-20T00:02:08.133Z,12.60
2023-05-20T00:04:45.631Z,12.65
2023-05-20T00:07:25.810Z,12.67
2023-05-20T00:10:04.011Z,12.67
2023-05-20T00:12:43.147Z,12.71
2023-05-20T00:15:22.881Z,12.72
2023-05-20T00:17:57.546Z,12.73
2023-05-20T00:20:35.268Z,12.75
2023-05-20T00:23:15.194Z,12.77
2023-05-20T00:25:51.383Z,12.78
2023-05-20T00:28:33.232Z,12.77
2023-05-20T00:31:11.404Z,12.77
2023-05-20T00:33:48.796Z,12.74
2023-05-20T00:36:26.983Z,12.71
2023-05-20T00:39:04.223Z,12.73
2023-05-20T00:41:41.735Z,12.73
2023-05-20T00:44:25.557Z,12.70
2023-05-20T00:47:02.423Z,12.69
2023-05-20T00:49:40.771Z,12.66
2023-05-20T00:52:20.254Z,12.64
2023-05-20T00:55:02.807Z,12.62
2023-05-20T00:57:36.802Z,12.61
2023-05-20T01:00:18.801Z,12.63
2023-05-20T01:02:56.318Z,12.64
2023-05-20T01:05:42.385Z,12.59
2023-05-20T01:08:24.306Z,12.62
2023-05-20T01:11:06.365Z,12.63
2023-05-20T01:13:47.854Z,12.61
2023-05-20T01:16:34.595Z,12.57
2023-05-20T01:19:22.617Z,12.57
2023-05-20T01:22:06.647Z,12.52
2023-05-20T01:24:41.505Z,12.50
2023-05-20T01:27:17.167Z,12.46
2023-05-20T01:29:57.280Z,12.44
2023-05-20T01:32:41.727Z,12.41
2023-05-20T01:35:19.454Z,12.43
2023-05-20T01:38:03.172Z,12.44
2023-05-20T01:40:42.013Z,12.41
2023-05-20T01:43:23.194Z,12.38
2023-05-20T01:46:03.537Z,12.41
2023-05-20T01:48:48.792Z,12.40
2023-05-20T01:51:27.142Z,12.37
2023-05-20T01:54:05.110Z,12.40
2023-05-20T01:56:43.486Z,12.46
2023-05-20T01:59:22.703Z,12.51
2023-05-20T02:02:00.857Z,12.52
2023-05-20T02:04:37.841Z,12.53
2023-05-20T02:07:12.588Z,12.50
2023-05-20T02:09:49.501Z,12.50
2023-05-20T02:12:27.781Z,12.50
2023-05-20T02:15:04.022Z,12.47
2023-05-20T02:17:45.904Z,12.48
2023-05-20T02:20:22.995Z,12.51
2023-05-20T02:22:58.524Z,12.53
2023-05-20T02:25:35.553Z,12.53
2023-05-20T02:28:12.955Z,12.49
2023-05-20T02:30:53.133Z,12.47
2023-05-20T02:33:29.829Z,12.48
2023-05-20T02:36:08.063Z,12.44
2023-05-20T02:38:43.581Z,12.39
2023-05-20T02:41:23.654Z,12.39
2023-05-20T02:44:03.214Z,12.43
2023-05-20T02:46:41.146Z,12.49
2023-05-20T02:49:19.740Z,12.50
2023-05-20T02:51:56.232Z,12.50
2023-05-20T02:54:45.200Z,12.53
2023-05-20T02:57:22.791Z,12.50
2023-05-20T03:00:02.692Z,12.46
2023-05-20T03:02:39.252Z,12.41
2023-05-20T03:05:16.313Z,12.45
2023-05-20T03:07:52.845Z,12.48
2023-05-20T03:10:28.903Z,12.44
2023-05-20T03:13:06.139Z,12.46
2023-05-20T03:15:44.664Z,12.45
2023-05-20T03:18:23.145Z,12.47
2023-05-20T03:21:03.397Z,12.45
2023-05-20T03:23:38.685Z,12.46
2023-05-20T03:26:16.873Z,12.48
2023-05-20T03:28:56.153Z,12.46
2023-05-20T03:31:33.277Z,12.51
2023-05-20T03:34:16.916Z,12.52
2023-05-20T03:36:57.660Z,12.53
2023-05-20T03:39:35.095Z,12.56
2023-05-20T03:42:13.086Z,12.55
2023-05-20T03:44:53.542Z,12.55
2023-05-20T03:47:33.333Z,12.58
2023-05-20T03:50:12.403Z,12.61
2023-05-20T03:52:52.098Z,12.62
2023-05-20T03:55:33.907Z,12.62
2023-05-20T03:58:21.882Z,12.63
2023-05-20T04:01:02.534Z,12.63
2023-05-20T04:03:40.198Z,12.63
2023-05-20T04:06:16.925Z,12.67
2023-05-20T04:09:03.470Z,12.68
2023-05-20T04:11:38.323Z,12.69
2023-05-20T04:14:16.119Z,12.72
2023-05-20T04:16:53.527Z,12.73
2023-05-20T04:19:33.927Z,12.73
2023-05-20T04:22:11.297Z,12.74
2023-05-20T04:24:48.264Z,12.75
2023-05-20T04:27:26.572Z,12.73
2023-05-20T04:30:03.442Z,12.73
2023-05-20T04:32:43.420Z,12.75
2023-05-20T04:35:20.782Z,12.79
2023-05-20T04:38:02.290Z,12.82
2023-05-20T04:40:39.844Z,12.85
2023-05-20T04:43:19.846Z,12.85
2023-05-20T04:46:02.126Z,12.89
2023-05-20T04:48:46.071Z,12.89
2023-05-20T04:51:22.629Z,12.92
2023-05-20T04:54:00.550Z,12.96
2023-05-20T04:56:40.570Z,12.94
2023-05-20T04:59:19.792Z,12.94
2023-05-20T05:01:58.121Z,12.97
2023-05-20T05:04:34.911Z,13.02
2023-05-20T05:07:11.679Z,13.05
2023-05-20T05:09:49.327Z,13.11
2023-05-20T05:12:26.702Z,13.17
2023-05-20T05:15:01.932Z,13.20
2023-05-20T05:17:38.668Z,13.21
2023-05-20T05:20:17.548Z,13.26
2023-05-20T05:22:56.701Z,13.31
2023-05-20T05:25:37.699Z,13.34
2023-05-20T05:28:15.340Z,13.37
2023-05-20T05:30:57.147Z,13.42
2023-05-20T05:33:44.730Z,13.38
2023-05-20T05:36:29.419Z,13.37
2023-05-20T05:39:08.282Z,13.45
2023-05-20T05:41:45.320Z,13.51
2023-05-20T05:44:26.346Z,13.55
2023-05-20T05:47:12.618Z,13.58
2023-05-20T05:49:53.910Z,13.61
2023-05-20T05:52:30.584Z,13.68
2023-05-20T05:55:09.024Z,13.73
2023-05-20T05:57:48.357Z,13.76
2023-05-20T06:00:26.953Z,13.80
2023-05-20T06:03:04.058Z,13.83
2023-05-20T06:05:42.814Z,13.88
2023-05-20T06:08:22.391Z,13.93
2023-05-20T06:11:05.960Z,13.98
2023-05-20T06:13:40.633Z,14.04
2023-05-20T06:16:19.919Z,14.11
2023-05-20T06:19:03.184Z,14.16
2023-05-20T06:21:41.455Z,14.19
2023-05-20T06:24:17.451Z,14.30
2023-05-20T06:26:59.213Z,14.39
2023-05-20T06:29:36.681Z,14.52
2023-05-20T06:32:12.907Z,14.66
2023-05-20T06:34:59.424Z,14.80
2023-05-20T06:37:36.591Z,14.96
2023-05-20T06:40:19.387Z,15.11
2023-05-20T06:42:56.556Z,15.25
2023-05-20T06:45:58.410Z,15.34
2023-05-20T06:48:43.434Z,15.46
2023-05-20T06:51:28.792Z,15.61
2023-05-20T06:54:14.137Z,15.73
2023-05-20T06:56:54.021Z,15.81
2023-05-20T06:59:34.176Z,15.95
2023-05-20T07:02:15.776Z,16.06
2023-05-20T07:04:55.636Z,16.19
2023-05-20T07:07:32.944Z,16.31
2023-05-20T07:10:13.105Z,16.45
2023-05-20T07:12:54.897Z,16.49
2023-05-20T07:15:33.961Z,16.59
2023-05-20T07:18:07.503Z,16.74
2023-05-20T07:20:45.942Z,16.73
2023-05-20T07:23:54.328Z,16.83
2023-05-20T07:26:34.462Z,17.00
2023-05-20T07:29:12.822Z,17.15
2023-05-20T07:31:49.593Z,17.23
2023-05-20T07:34:35.740Z,17.28
2023-05-20T07:37:15.100Z,17.39
2023-05-20T07:39:53.581Z,17.52
2023-05-20T07:42:30.891Z,17.69
2023-05-20T07:45:10.577Z,17.83
2023-05-20T07:47:47.787Z,17.84
2023-05-20T07:50:30.602Z,17.76
2023-05-20T07:53:07.206Z,17.79
2023-05-20T07:55:51.639Z,17.91
2023-05-20T07:58:28.041Z,17.99
2023-05-20T08:01:09.502Z,18.02
2023-05-20T08:03:45.450Z,18.08
2023-05-20T08:06:29.957Z,18.17
2023-05-20T08:09:12.490Z,18.26
2023-05-20T08:11:54.720Z,18.36
2023-05-20T08:14:32.550Z,18.42
2023-05-20T08:17:06.359Z,18.50
2023-05-20T08:19:43.637Z,18.60
2023-05-20T08:22:28.971Z,18.71
2023-05-20T08:25:13.002Z,18.79
2023-05-20T08:27:56.295Z,18.81
2023-05-20T08:30:36.529Z,18.82
2023-05-20T08:33:15.314Z,18.91
2023-05-20T08:35:54.787Z,18.94
2023-05-20T08:38:41.472Z,18.84
2023-05-20T08:41:16.190Z,18.77
2023-05-20T08:43:58.352Z,18.76
2023-05-20T08:46:35.858Z,18.80
2023-05-20T08:49:16.549Z,18.79
2023-05-20T08:51:57.585Z,18.79
2023-05-20T08:54:46.493Z,18.81
2023-05-20T08:57:28.972Z,18.79
2023-05-20T09:00:09.536Z,18.83
2023-05-20T09:02:50.364Z,18.87
2023-05-20T09:05:29.715Z,18.83
2023-05-20T09:08:15.302Z,18.78
2023-05-20T09:10:50.989Z,18.71
2023-05-20T09:13:34.823Z,18.72
2023-05-20T09:16:21.216Z,18.81
2023-05-20T09:19:00.993Z,18.89
2023-05-20T09:21:40.282Z,18.95
2023-05-20T09:24:18.868Z,18.99
2023-05-20T09:26:56.578Z,19.02
2023-05-20T09:29:31.321Z,19.04
2023-05-20T09:32:11.778Z,19.07
2023-05-20T09:34:50.581Z,19.09
2023-05-20T09:37:30.694Z,19.17
2023-05-20T09:40:11.439Z,19.28
2023-05-20T09:42:55.161Z,19.34
2023-05-20T09:45:35.120Z,19.35
2023-05-20T09:48:13.308Z,19.45
2023-05-20T09:50:55.196Z,19.49
2023-05-20T09:53:32.633Z,19.51
2023-05-20T09:56:11.299Z,19.51
2023-05-20T09:58:50.085Z,19.47
2023-05-20T10:01:26.797Z,19.54
2023-05-20T10:04:09.132Z,19.55
2023-05-20T10:07:12.940Z,19.61
2023-05-20T10:10:02.323Z,19.58
2023-05-20T10:12:49.156Z,19.56
2023-05-20T10:15:37.071Z,19.62
2023-05-20T10:18:29.613Z,19.59
2023-05-20T10:21:04.602Z,19.48
2023-05-20T10:23:41.007Z,19.49
2023-05-20T10:26:19.120Z,19.54
2023-05-20T10:29:04.834Z,19.62
2023-05-20T10:31:50.050Z,19.77
2023-05-20T10:34:27.780Z,19.87
2023-05-20T10:37:07.371Z,20.00
2023-05-20T10:39:50.617Z,20.14
2023-05-20T10:42:34.144Z,20.19
2023-05-20T10:45:18.616Z,20.29
2023-05-20T10:48:01.227Z,20.36
2023-05-20T10:50:39.269Z,20.38
2023-05-20T10:53:29.742Z,20.35
2023-05-20T10:56:20.985Z,20.40
2023-05-20T10:58:58.845Z,20.50
2023-05-20T11:01:35.523Z,20.51
2023-05-20T11:04:13.048Z,20.53
2023-05-20T11:06:59.202Z,20.64
2023-05-20T11:09:35.681Z,20.76
2023-05-20T11:12:16.860Z,20.88
2023-05-20T11:14:55.738Z,20.97
2023-05-20T11:17:35.686Z,20.98
2023-05-20T11:20:18.591Z,21.05
2023-05-20T11:22:57.640Z,21.24
2023-05-20T11:25:33.787Z,21.43
2023-05-20T11:28:15.568Z,21.55
2023-05-20T11:30:54.277Z,21.65
2023-05-20T11:33:31.412Z,21.78
2023-05-20T11:36:27.486Z,21.81
2023-05-20T11:39:06.509Z,21.72
2023-05-20T11:41:48.272Z,21.65
2023-05-20T11:44:25.703Z,21.51
2023-05-20T11:47:09.937Z,21.51
2023-05-20T11:49:46.278Z,21.61
2023-05-20T11:52:23.623Z,21.70
2023-05-20T11:54:58.767Z,21.72
2023-05-20T11:57:35.368Z,21.79
2023-05-20T12:00:19.550Z,21.88
2023-05-20T12:02:59.873Z,21.98
2023-05-20T12:05:42.109Z,21.90
2023-05-20T12:08:23.592Z,21.84
2023-05-20T12:11:01.788Z,21.82
2023-05-20T12:13:38.000Z,21.84
2023-05-20T12:16:18.573Z,21.91
2023-05-20T12:18:58.716Z,21.94
2023-05-20T12:21:37.698Z,21.98
2023-05-20T12:24:16.312Z,21.99
2023-05-20T12:26:55.090Z,22.02
2023-05-20T12:29:33.384Z,22.05
2023-05-20T12:32:12.614Z,22.07
2023-05-20T12:35:00.934Z,22.06
2023-05-20T12:37:39.334Z,22.10
2023-05-20T12:40:21.105Z,22.18
2023-05-20T12:42:59.443Z,22.23
2023-05-20T12:45:37.337Z,22.30
2023-05-20T12:48:15.775Z,22.39
2023-05-20T12:50:52.673Z,22.50
2023-05-20T12:53:45.397Z,22.58
2023-05-20T12:56:22.395Z,22.65
2023-05-20T12:59:06.422Z,22.67
2023-05-20T13:01:41.828Z,22.72
2023-05-20T13:04:19.695Z,22.81
2023-05-20T13:06:58.244Z,22.88
2023-05-20T13:09:33.246Z,22.98
2023-05-20T13:12:12.955Z,23.01
2023-05-20T13:15:04.733Z,23.04
2023-05-20T13:17:42.014Z,23.03
2023-05-20T13:20:20.792Z,23.01
2023-05-20T13:22:56.073Z,23.02
2023-05-20T13:25:41.346Z,22.96
2023-05-20T13:28:19.026Z,22.93
2023-05-20T13:30:56.819Z,22.91
2023-05-20T13:33:35.741Z,22.94
2023-05-20T13:36:11.937Z,22.96
2023-05-20T13:38:50.145Z,22.95
2023-05-20T13:41:28.894Z,22.94
2023-05-20T13:44:06.476Z,22.97
2023-05-20T13:46:42.234Z,22.97
2023-05-20T13:49:22.449Z,23.03
2023-05-20T13:52:03.476Z,23.08
2023-05-20T13:54:43.648Z,23.10
2023-05-20T13:57:19.015Z,23.14
2023-05-20T13:59:53.719Z,23.23
2023-05-20T14:02:28.831Z,23.31
2023-05-20T14:05:06.331Z,23.40
2023-05-20T14:07:48.329Z,23.44
2023-05-20T14:10:30.348Z,23.48
2023-05-20T14:13:06.715Z,23.51
2023-05-20T14:15:44.149Z,23.53
2023-05-20T14:18:22.056Z,23.54
2023-05-20T14:20:58.860Z,23.53
2023-05-20T14:23:35.531Z,23.53
2023-05-20T14:26:19.582Z,23.54
2023-05-20T14:28:57.783Z,23.53
2023-05-20T14:31:35.629Z,23.52
2023-05-20T14:34:13.743Z,23.52
2023-05-20T14:36:49.111Z,23.53
2023-05-20T14:39:24.009Z,23.57
2023-05-20T14:42:01.269Z,23.61
2023-05-20T14:44:36.073Z,23.64
2023-05-20T14:47:11.486Z,23.64
2023-05-20T14:49:46.201Z,23.64
2023-05-20T14:52:23.960Z,23.66
2023-05-20T14:55:02.158Z,23.65
2023-05-20T14:57:41.822Z,23.68
2023-05-20T15:00:19.608Z,23.74
2023-05-20T15:02:57.196Z,23.78
2023-05-20T15:05:32.897Z,23.76
2023-05-20T15:08:08.202Z,23.80
2023-05-20T15:10:43.168Z,23.88
2023-05-20T15:13:20.250Z,23.95
2023-05-20T15:15:55.337Z,23.99
2023-05-20T15:18:32.789Z,24.08
2023-05-20T15:21:09.431Z,24.19
2023-05-20T15:23:44.569Z,24.27
2023-05-20T15:26:17.957Z,24.27
2023-05-20T15:28:53.045Z,24.31
2023-05-20T15:31:29.991Z,24.41
2023-05-20T15:34:06.145Z,24.53
2023-05-20T15:36:42.626Z,24.63
2023-05-20T15:39:19.810Z,24.74
2023-05-20T15:41:55.323Z,24.79
2023-05-20T15:44:31.769Z,24.77
2023-05-20T15:47:09.587Z,24.69
2023-05-20T15:49:46.876Z,24.56
2023-05-20T15:52:21.899Z,24.42
2023-05-20T15:54:58.149Z,24.33
2023-05-20T15:57:33.415Z,24.27
2023-05-20T16:00:18.343Z,24.20
2023-05-20T16:02:57.857Z,24.18
2023-05-20T16:05:36.207Z,24.22
2023-05-20T16:08:10.245Z,24.23
2023-05-20T16:10:47.242Z,24.23
2023-05-20T16:13:24.667Z,24.25
2023-05-20T16:16:01.456Z,24.23
2023-05-20T16:18:41.796Z,24.25
2023-05-20T16:21:20.208Z,24.25
2023-05-20T16:23:56.872Z,24.23
2023-05-20T16:26:34.243Z,24.23
2023-05-20T16:29:11.562Z,24.22
2023-05-20T16:31:48.531Z,24.17
2023-05-20T16:34:23.945Z,24.14
2023-05-20T16:37:02.499Z,24.09
2023-05-20T16:39:37.810Z,24.02
2023-05-20T16:42:15.979Z,23.98
2023-05-20T16:44:54.942Z,23.94
2023-05-20T16:47:30.561Z,23.91
2023-05-20T16:50:09.366Z,23.87
2023-05-20T16:52:44.807Z,23.80
2023-05-20T16:55:20.796Z,23.67
2023-05-20T16:57:57.146Z,23.59
2023-05-20T17:00:34.713Z,23.53
2023-05-20T17:03:18.176Z,23.50
2023-05-20T17:05:53.926Z,23.44
2023-05-20T17:08:29.923Z,23.38
2023-05-20T17:11:05.556Z,23.26
2023-05-20T17:13:41.697Z,23.26
2023-05-20T17:16:18.659Z,23.29
2023-05-20T17:18:59.614Z,23.27
2023-05-20T17:21:36.518Z,23.25
2023-05-20T17:24:10.859Z,23.24
2023-05-20T17:26:44.806Z,23.24
2023-05-20T17:29:21.729Z,23.22
2023-05-20T17:31:59.522Z,23.17
2023-05-20T17:34:36.467Z,23.12
2023-05-20T17:37:12.976Z,23.10
2023-05-20T17:39:53.183Z,23.06
2023-05-20T17:42:27.836Z,23.02
2023-05-20T17:45:05.223Z,22.98
2023-05-20T17:47:48.155Z,22.92
2023-05-20T17:50:27.214Z,22.85
2023-05-20T17:53:04.945Z,22.80
2023-05-20T17:55:44.364Z,22.76
2023-05-20T17:58:22.330Z,22.71
2023-05-20T18:00:56.597Z,22.66
2023-05-20T18:03:33.650Z,22.63
2023-05-20T18:06:12.316Z,22.58
2023-05-20T18:08:53.192Z,22.53
2023-05-20T18:11:31.484Z,22.46
2023-05-20T18:14:07.644Z,22.41
2023-05-20T18:16:46.085Z,22.34
2023-05-20T18:19:28.762Z,22.26
2023-05-20T18:22:07.954Z,22.20
2023-05-20T18:24:50.751Z,22.12
2023-05-20T18:27:26.092Z,22.07
2023-05-20T18:30:03.156Z,22.02
2023-05-20T18:32:40.134Z,21.95
2023-05-20T18:35:16.231Z,21.89
2023-05-20T18:37:52.611Z,21.83
2023-05-20T18:40:30.967Z,21.77
2023-05-20T18:43:06.452Z,21.71
2023-05-20T18:45:42.599Z,21.65
2023-05-20T18:48:28.904Z,21.58
2023-05-20T18:51:06.193Z,21.51
2023-05-20T18:53:40.610Z,21.44
2023-05-20T18:56:23.430Z,21.37
2023-05-20T18:59:06.702Z,21.29
2023-05-20T19:01:43.354Z,21.16
2023-05-20T19:04:21.011Z,21.04
2023-05-20T19:06:56.157Z,20.87
2023-05-20T19:09:31.931Z,20.67
2023-05-20T19:12:08.801Z,20.56
2023-05-20T19:14:45.663Z,20.49
2023-05-20T19:17:21.496Z,20.40
2023-05-20T19:19:56.383Z,20.29
2023-05-20T19:22:34.518Z,20.17
2023-05-20T19:25:18.125Z,20.05
2023-05-20T19:27:55.645Z,19.87
2023-05-20T19:30:36.283Z,19.65
2023-05-20T19:33:13.479Z,19.53
2023-05-20T19:35:51.987Z,19.42
2023-05-20T19:38:28.428Z,19.36
2023-05-20T19:41:03.967Z,19.31
2023-05-20T19:43:40.047Z,19.29
2023-05-20T19:46:14.957Z,19.24
2023-05-20T19:48:51.937Z,19.20
2023-05-20T19:51:33.249Z,19.19
2023-05-20T19:54:11.152Z,19.16
2023-05-20T19:56:45.282Z,19.14
2023-05-20T19:59:23.165Z,19.11
2023-05-20T20:02:03.744Z,19.07
2023-05-20T20:04:39.810Z,19.01
2023-05-20T20:07:17.966Z,18.98
2023-05-20T20:09:55.966Z,18.93
2023-05-20T20:12:33.247Z,18.90
2023-05-20T20:15:14.806Z,18.88
2023-05-20T20:17:53.117Z,18.84
2023-05-20T20:20:31.068Z,18.79
2023-05-20T20:23:05.984Z,18.75
2023-05-20T20:25:48.151Z,18.70
2023-05-20T20:28:23.292Z,18.66
2023-05-20T20:31:00.692Z,18.63
2023-05-20T20:33:38.610Z,18.59
2023-05-20T20:36:17.147Z,18.56
2023-05-20T20:38:54.455Z,18.52
2023-05-20T20:41:34.361Z,18.49
2023-05-20T20:44:16.316Z,18.46
2023-05-20T20:46:55.627Z,18.44
2023-05-20T20:49:35.998Z,18.42
2023-05-20T20:52:16.127Z,18.39
2023-05-20T20:54:54.763Z,18.36
2023-05-20T20:57:32.132Z,18.34
2023-05-20T21:00:18.384Z,18.32
2023-05-20T21:02:58.495Z,18.27
2023-05-20T21:05:39.160Z,18.23
2023-05-20T21:08:19.401Z,18.19
2023-05-20T21:10:54.989Z,18.16
2023-05-20T21:13:29.601Z,18.13
2023-05-20T21:16:10.950Z,18.13
2023-05-20T21:18:48.939Z,18.10
2023-05-20T21:21:29.967Z,18.06
2023-05-20T21:24:29.735Z,18.02
2023-05-20T21:27:12.590Z,17.96
2023-05-20T21:29:49.065Z,17.94
2023-05-20T21:32:28.801Z,17.91
2023-05-20T21:35:02.088Z,17.91
2023-05-20T21:37:37.105Z,17.90
2023-05-20T21:40:17.664Z,17.90
2023-05-20T21:42:53.611Z,17.88
2023-05-20T21:45:31.393Z,17.87
2023-05-20T21:48:06.424Z,17.86
2023-05-20T21:50:42.451Z,17.85
2023-05-20T21:53:19.393Z,17.83
2023-05-20T21:55:56.993Z,17.82
2023-05-20T21:58:41.256Z,17.80
2023-05-20T22:01:16.629Z,17.78
2023-05-20T22:03:53.600Z,17.77
2023-05-20T22:06:37.110Z,17.75
2023-05-20T22:09:13.500Z,17.72
2023-05-20T22:11:51.542Z,17.69
2023-05-20T22:14:28.289Z,17.67
2023-05-20T22:17:04.225Z,17.65
2023-05-20T22:19:39.580Z,17.63
2023-05-20T22:22:16.603Z,17.62
2023-05-20T22:24:53.860Z,17.61
2023-05-20T22:27:29.530Z,17.60
2023-05-20T22:30:14.831Z,17.58
2023-05-20T22:32:49.677Z,17.55
2023-05-20T22:35:27.627Z,17.53
2023-05-20T22:38:09.201Z,17.53
2023-05-20T22:40:56.756Z,17.51
2023-05-20T22:43:30.693Z,17.49
2023-05-20T22:46:14.080Z,17.47
2023-05-20T22:49:04.325Z,17.44
2023-05-20T22:51:41.547Z,17.43
2023-05-20T22:54:17.603Z,17.41
2023-05-20T22:56:58.685Z,17.38
2023-05-20T22:59:35.240Z,17.36
2023-05-20T23:02:13.229Z,17.35
2023-05-20T23:04:50.422Z,17.34
2023-05-20T23:07:26.321Z,17.33
2023-05-20T23:10:06.459Z,17.29
2023-05-20T23:12:47.559Z,17.25
2023-05-20T23:15:25.443Z,17.24
2023-05-20T23:18:06.476Z,17.20
2023-05-20T23:20:42.291Z,17.18
2023-05-20T23:23:30.548Z,17.15
2023-05-20T23:26:08.736Z,17.13
2023-05-20T23:28:46.415Z,17.10
2023-05-20T23:31:24.820Z,17.07
2023-05-20T23:34:02.084Z,17.03
2023-05-20T23:36:46.770Z,17.00
2023-05-20T23:39:21.131Z,17.01
2023-05-20T23:41:57.637Z,16.99
2023-05-20T23:44:33.461Z,16.99
2023-05-20T23:47:10.070Z,16.98
2023-05-20T23:49:49.255Z,16.95
2023-05-20T23:52:25.682Z,16.90
2023-05-20T23:55:04.314Z,16.86
2023-05-20T23:57:40.096Z,16.86
